Terminal Aerodrome Forecast
Issued by NWS

Home | Current Version | Previous Version | Text Only | Print | Product List | Glossary On
Versions: 1 2 3 4 5 6 7 8 9 10 11 12 13 14 15 16
000
FTUS41 KCLE 071724
TAFFDY
TAF
KFDY 071724Z 0718/0818 23011KT 6SM -SHRA SCT018 OVC060
      TEMPO 0718/0719 3SM -TSRA BR BKN018 OVC040CB
     FM071900 24011KT 6SM -SHRA VCTS SCT018CB OVC100
      TEMPO 0719/0723 4SM -SHRA BR BKN018
     FM072300 32010KT 5SM -SHRA BR BKN008 OVC015
     FM080800 02006KT 6SM BR VCSH BKN018=

USA.gov is the U.S. government's official web portal to all federal, state and local government web resources and services.